Time;durP1;ratioP1;P1;durP2;ratioP2;P2;SDS_P1;SDS_P2;PMS_P1;PMS_P2;Temp;Humidity;BMP_temperature;BMP_pressure;BME280_temperature;BME280_humidity;BME280_pressure;Samples;Min_cycle;Max_cycle;Signal;HPM_P1;HPM_P2
2023/12/29 00:01:32;;;;;;;;;;;;;;;11.81;70.29;99158.30;109292;1253;59734;-64
2023/12/29 00:04:00;;;;;;;;;;;;;;;11.80;69.88;99157.86;109131;1253;74879;-62
2023/12/29 00:06:28;;;;;;;;;;;;;;;11.83;69.33;99156.98;109506;1252;68532;-64
2023/12/29 00:08:55;;;;;;;;;;;;;;;11.86;69.20;99159.69;109461;1253;72767;-65
2023/12/29 00:11:23;;;;;;;;;;;;;;;11.73;69.76;99156.95;109480;1253;62951;-66
2023/12/29 00:13:50;;;;;;;;;;;;;;;11.86;69.20;99162.58;109474;1253;60032;-65
2023/12/29 00:16:18;;;;;;;;;;;;;;;11.79;69.11;99159.84;109530;1253;73512;-63
2023/12/29 00:18:45;;;;;;;;;;;;;;;11.74;69.25;99159.10;109486;1253;67326;-65
2023/12/29 00:21:13;;;;;;;;;;;;;;;11.83;68.77;99159.96;109472;1254;70470;-65
2023/12/29 00:23:42;;;;;;;;;;;;;;;11.91;68.11;99157.59;109463;1257;59074;-64
2023/12/29 00:26:09;;;;;;;;;;;;;;;11.96;67.69;99156.41;109355;1253;58849;-65
2023/12/29 00:28:40;;;;;;;;;;;;;;;11.88;67.73;99155.01;109138;1253;74460;-65
2023/12/29 00:31:07;;;;;;;;;;;;;;;11.78;68.19;99160.02;109470;1253;67973;-64
2023/12/29 00:33:35;;;;;;;;;;;;;;;11.74;68.28;99150.86;109356;1252;72718;-65
2023/12/29 00:36:03;;;;;;;;;;;;;;;11.78;67.71;99146.62;109488;1252;59661;-64
2023/12/29 00:38:31;;;;;;;;;;;;;;;11.67;68.31;99141.89;109600;1252;58903;-63
2023/12/29 00:40:58;;;;;;;;;;;;;;;11.56;68.49;99141.05;109566;1251;73775;-66
2023/12/29 00:43:26;;;;;;;;;;;;;;;11.67;68.02;99139.05;109532;1251;68597;-66
2023/12/29 00:45:53;;;;;;;;;;;;;;;11.57;68.42;99135.73;109607;1253;71703;-64
2023/12/29 00:48:21;;;;;;;;;;;;;;;11.54;68.83;99132.45;109562;1254;59653;-64
2023/12/29 00:50:48;;;;;;;;;;;;;;;11.50;68.91;99134.77;109201;1254;59014;-64
2023/12/29 00:53:16;;;;;;;;;;;;;;;11.56;68.41;99131.00;109378;1259;74717;-61
2023/12/29 00:55:43;;;;;;;;;;;;;;;11.59;68.10;99134.33;109349;1252;68696;-65
2023/12/29 00:58:11;;;;;;;;;;;;;;;11.47;68.52;99128.16;109570;1254;72721;-64
2023/12/29 01:00:38;;;;;;;;;;;;;;;11.40;68.99;99126.77;109600;1253;60984;-65
2023/12/29 01:03:06;;;;;;;;;;;;;;;11.50;68.38;99123.75;109544;1254;60758;-62
2023/12/29 01:05:33;;;;;;;;;;;;;;;11.52;68.25;99122.14;109564;1253;74719;-64
2023/12/29 01:08:01;;;;;;;;;;;;;;;11.59;67.86;99119.33;109567;1253;66250;-65
2023/12/29 01:10:29;;;;;;;;;;;;;;;11.33;69.32;99117.41;109552;1257;71461;-64
2023/12/29 01:12:56;;;;;;;;;;;;;;;11.45;68.88;99118.27;109542;1253;61139;-65
2023/12/29 01:15:24;;;;;;;;;;;;;;;11.49;68.54;99115.73;109350;1254;59152;-64
2023/12/29 01:17:52;;;;;;;;;;;;;;;11.39;68.95;99107.52;109517;1257;74683;-63
2023/12/29 01:20:19;;;;;;;;;;;;;;;11.32;69.35;99104.52;109582;1253;68799;-64
2023/12/29 01:22:47;;;;;;;;;;;;;;;11.41;68.91;99101.77;109533;1254;71455;-65
2023/12/29 01:25:14;;;;;;;;;;;;;;;11.18;70.13;99098.66;109596;1253;60953;-65
2023/12/29 01:27:41;;;;;;;;;;;;;;;11.17;70.66;99095.48;109613;1254;59841;-65
2023/12/29 01:30:09;;;;;;;;;;;;;;;11.18;70.35;99092.86;109546;1252;73951;-65
2023/12/29 01:32:37;;;;;;;;;;;;;;;11.03;71.52;99090.70;109537;1252;67727;-65
2023/12/29 01:35:05;;;;;;;;;;;;;;;11.22;70.49;99091.84;109564;1252;71457;-65
2023/12/29 01:37:32;;;;;;;;;;;;;;;11.44;69.05;99088.88;109565;1252;59677;-65
2023/12/29 01:39:59;;;;;;;;;;;;;;;11.45;68.99;99089.62;109624;1253;59061;-64
2023/12/29 01:42:27;;;;;;;;;;;;;;;11.10;70.55;99088.60;109625;1253;74705;-66
2023/12/29 01:44:55;;;;;;;;;;;;;;;11.22;70.46;99089.15;109377;1252;68958;-65
2023/12/29 01:47:22;;;;;;;;;;;;;;;11.43;69.20;99090.33;109275;1253;71478;-66
2023/12/29 01:49:50;;;;;;;;;;;;;;;11.29;69.70;99091.24;109363;1254;59670;-62
2023/12/29 01:52:17;;;;;;;;;;;;;;;11.11;70.56;99092.86;109399;1253;59377;-65
2023/12/29 01:54:45;;;;;;;;;;;;;;;11.03;71.68;99092.37;109510;1254;74757;-65
2023/12/29 01:57:13;;;;;;;;;;;;;;;10.86;72.82;99093.00;109468;1254;67671;-66
2023/12/29 01:59:40;;;;;;;;;;;;;;;10.97;72.35;99094.79;109390;1253;72703;-66
2023/12/29 02:02:08;;;;;;;;;;;;;;;10.98;72.25;99098.39;109394;1254;61007;-66
2023/12/29 02:04:36;;;;;;;;;;;;;;;10.67;74.17;99088.14;109397;1253;59439;-65
2023/12/29 02:07:04;;;;;;;;;;;;;;;10.99;72.31;99085.98;109385;1254;74697;-65
2023/12/29 02:09:34;;;;;;;;;;;;;;;11.06;71.92;99080.71;109526;1253;68982;-65
2023/12/29 02:12:02;;;;;;;;;;;;;;;10.77;73.70;99073.19;109622;1253;71405;-64
2023/12/29 02:14:29;;;;;;;;;;;;;;;10.93;72.80;99073.68;109620;1253;60906;-63
2023/12/29 02:17:03;;;;;;;;;;;;;;;11.07;71.95;99076.05;109314;1254;58928;-65
2023/12/29 02:19:38;;;;;;;;;;;;;;;11.14;71.39;99076.80;109397;1254;74749;-64
2023/12/29 02:22:07;;;;;;;;;;;;;;;11.07;71.72;99075.67;109559;1253;69120;-64
2023/12/29 02:24:36;;;;;;;;;;;;;;;10.90;73.18;99073.83;109471;1251;72752;-65
2023/12/29 02:27:18;;;;;;;;;;;;;;;10.89;73.22;99072.82;109464;1254;59690;-65
2023/12/29 02:29:48;;;;;;;;;;;;;;;10.97;72.70;99065.89;109641;1252;58949;-64
2023/12/29 02:32:17;;;;;;;;;;;;;;;10.86;73.45;99068.14;109601;1254;73484;-64
2023/12/29 02:34:44;;;;;;;;;;;;;;;11.07;72.56;99070.14;109583;1252;68495;-64
2023/12/29 02:37:12;;;;;;;;;;;;;;;11.16;71.61;99069.07;109540;1254;72727;-65
2023/12/29 02:39:39;;;;;;;;;;;;;;;10.99;72.87;99065.52;109293;1253;60951;-64
2023/12/29 02:42:07;;;;;;;;;;;;;;;11.09;72.52;99060.41;109589;1251;59859;-65
2023/12/29 02:44:34;;;;;;;;;;;;;;;11.13;71.81;99055.48;109606;1253;74813;-63
2023/12/29 02:47:03;;;;;;;;;;;;;;;11.17;71.49;99059.39;109638;1254;69026;-64
2023/12/29 02:49:33;;;;;;;;;;;;;;;11.17;71.46;99061.48;109448;1253;72719;-64
2023/12/29 02:52:00;;;;;;;;;;;;;;;11.20;71.00;99053.10;109491;1254;61031;-65
2023/12/29 02:54:28;;;;;;;;;;;;;;;10.97;72.38;99049.23;109393;1253;59840;-65
2023/12/29 02:56:56;;;;;;;;;;;;;;;11.01;72.15;99053.65;109365;1253;74772;-65
2023/12/29 02:59:23;;;;;;;;;;;;;;;10.69;73.93;99066.61;109475;1253;67578;-65
2023/12/29 03:01:51;;;;;;;;;;;;;;;10.69;74.12;99065.39;109451;1254;71785;-65
2023/12/29 03:04:18;;;;;;;;;;;;;;;10.85;72.76;99067.01;109461;1254;60937;-64
2023/12/29 03:06:46;;;;;;;;;;;;;;;10.66;73.31;99062.73;109466;1254;59845;-65
2023/12/29 03:09:13;;;;;;;;;;;;;;;10.45;74.47;99054.97;109294;1254;75077;-64
2023/12/29 03:11:41;;;;;;;;;;;;;;;10.45;73.97;99054.77;109372;1254;68723;-64
2023/12/29 03:14:08;;;;;;;;;;;;;;;10.33;74.81;99056.33;109387;1254;71572;-64
2023/12/29 03:16:36;;;;;;;;;;;;;;;10.06;76.63;99053.38;109131;1254;59635;-64
2023/12/29 03:19:03;;;;;;;;;;;;;;;9.99;77.12;99052.27;109257;1254;59062;-64
2023/12/29 03:21:31;;;;;;;;;;;;;;;9.91;77.43;99047.99;109340;1254;74745;-64
2023/12/29 03:23:58;;;;;;;;;;;;;;;9.82;77.80;99053.21;109389;1254;68604;-63
2023/12/29 03:26:26;;;;;;;;;;;;;;;9.69;78.83;99053.31;109391;1254;71506;-64
2023/12/29 03:28:54;;;;;;;;;;;;;;;9.79;77.75;99056.42;109383;1253;61105;-63
2023/12/29 03:31:21;;;;;;;;;;;;;;;9.53;79.56;99054.08;109317;1257;58917;-61
2023/12/29 03:33:49;;;;;;;;;;;;;;;9.33;81.25;99047.85;109405;1254;73402;-64
2023/12/29 03:36:16;;;;;;;;;;;;;;;9.27;81.34;99046.42;109405;1254;67572;-63
2023/12/29 03:38:43;;;;;;;;;;;;;;;9.25;81.70;99044.69;109393;1254;72717;-61
2023/12/29 03:41:11;;;;;;;;;;;;;;;9.35;80.61;99044.86;109378;1254;59662;-63
2023/12/29 03:43:38;;;;;;;;;;;;;;;9.15;81.91;99039.46;109531;1252;58852;-63
2023/12/29 03:46:35;;;;;;;;;;;;;;;9.13;82.17;99040.20;109539;1252;74675;-64
2023/12/29 03:49:03;;;;;;;;;;;;;;;9.18;81.28;99041.58;108874;1260;69014;-60
2023/12/29 03:51:31;;;;;;;;;;;;;;;8.90;83.75;99042.39;108920;1259;71144;-62
2023/12/29 03:53:58;;;;;;;;;;;;;;;9.03;82.68;99048.16;108986;1260;59683;-62
2023/12/29 03:56:26;;;;;;;;;;;;;;;9.04;82.26;99043.79;108993;1259;59839;-63
2023/12/29 03:58:53;;;;;;;;;;;;;;;9.08;81.66;99042.96;109007;1259;74757;-64
2023/12/29 04:01:21;;;;;;;;;;;;;;;8.97;81.81;99045.13;109001;1259;68615;-63
2023/12/29 04:03:48;;;;;;;;;;;;;;;9.02;81.44;99041.25;108947;1259;72779;-64
2023/12/29 04:06:16;;;;;;;;;;;;;;;9.02;81.19;99041.57;108962;1260;60102;-63
2023/12/29 04:08:43;;;;;;;;;;;;;;;8.93;81.63;99042.63;108986;1257;59965;-62
2023/12/29 04:11:11;;;;;;;;;;;;;;;8.84;82.02;99043.99;108895;1257;74693;-63
2023/12/29 04:13:39;;;;;;;;;;;;;;;8.91;81.81;99041.80;108932;1257;67534;-64
2023/12/29 04:16:06;;;;;;;;;;;;;;;9.02;80.34;99036.77;109051;1257;71442;-60
2023/12/29 04:18:34;;;;;;;;;;;;;;;9.05;79.77;99032.75;108909;1257;59693;-63
2023/12/29 04:21:02;;;;;;;;;;;;;;;8.98;80.53;99037.20;109080;1257;58964;-61
2023/12/29 04:23:29;;;;;;;;;;;;;;;9.01;79.71;99038.82;109062;1257;74651;-62
2023/12/29 04:25:57;;;;;;;;;;;;;;;8.97;79.15;99040.08;109358;1254;68900;-64
2023/12/29 04:28:24;;;;;;;;;;;;;;;8.92;79.70;99039.89;109594;1252;71431;-64
2023/12/29 04:30:53;;;;;;;;;;;;;;;8.81;80.43;99038.62;109557;1253;59769;-61
2023/12/29 04:33:21;;;;;;;;;;;;;;;8.77;79.99;99044.37;109567;1252;58977;-63
2023/12/29 04:35:49;;;;;;;;;;;;;;;8.67;80.86;99042.30;109622;1251;73547;-64
2023/12/29 04:38:19;;;;;;;;;;;;;;;8.51;82.06;99048.92;109528;1253;67331;-62
2023/12/29 04:40:47;;;;;;;;;;;;;;;8.62;81.01;99065.67;109566;1252;72740;-64
2023/12/29 04:43:15;;;;;;;;;;;;;;;8.67;80.67;99071.45;109554;1252;59663;-64
2023/12/29 04:45:42;;;;;;;;;;;;;;;8.68;80.76;99073.76;109485;1253;59050;-65
2023/12/29 04:48:10;;;;;;;;;;;;;;;8.62;81.35;99066.90;109584;1253;74687;-64
2023/12/29 04:50:37;;;;;;;;;;;;;;;8.71;80.96;99060.14;109152;1253;66457;-65
2023/12/29 04:53:04;;;;;;;;;;;;;;;8.75;80.36;99058.83;109476;1253;71424;-65
2023/12/29 04:55:32;;;;;;;;;;;;;;;8.59;81.62;99059.50;109132;1253;59633;-65
2023/12/29 04:57:59;;;;;;;;;;;;;;;8.67;80.95;99059.67;109430;1254;59945;-65
2023/12/29 05:00:27;;;;;;;;;;;;;;;8.60;80.93;99056.02;109446;1253;74486;-64
2023/12/29 05:02:54;;;;;;;;;;;;;;;8.75;79.67;99064.63;109480;1252;66656;-61
2023/12/29 05:05:22;;;;;;;;;;;;;;;8.71;78.79;99064.85;109394;1253;72717;-61
2023/12/29 05:07:49;;;;;;;;;;;;;;;8.50;80.45;99065.23;109428;1253;59675;-61
2023/12/29 05:10:17;;;;;;;;;;;;;;;8.41;80.87;99063.47;109533;1252;59056;-61
2023/12/29 05:12:44;;;;;;;;;;;;;;;8.36;81.35;99060.48;109473;1252;76689;-61
2023/12/29 05:15:12;;;;;;;;;;;;;;;8.33;81.12;99060.54;109528;1252;68726;-62
2023/12/29 05:17:39;;;;;;;;;;;;;;;8.38;81.18;99061.56;109553;1252;72688;-63
2023/12/29 05:20:07;;;;;;;;;;;;;;;8.34;81.56;99053.59;109575;1253;59122;-62
2023/12/29 05:22:35;;;;;;;;;;;;;;;8.40;80.34;99055.98;109483;1252;58981;-61
2023/12/29 05:25:03;;;;;;;;;;;;;;;8.34;80.21;99052.21;109337;1252;151632;-63
2023/12/29 05:27:31;;;;;;;;;;;;;;;8.28;81.27;99053.42;109387;1253;67704;-63
2023/12/29 05:30:00;;;;;;;;;;;;;;;8.21;81.75;99052.15;109605;1252;72968;-63
2023/12/29 05:32:27;;;;;;;;;;;;;;;8.10;81.93;99053.33;109589;1252;60921;-62
2023/12/29 05:34:55;;;;;;;;;;;;;;;8.18;81.28;99057.91;109474;1252;60606;-62
2023/12/29 05:37:22;;;;;;;;;;;;;;;8.04;82.86;99063.15;109459;1252;74760;-60
2023/12/29 05:39:50;;;;;;;;;;;;;;;7.89;83.46;99066.38;109278;1253;68801;-60
2023/12/29 05:42:17;;;;;;;;;;;;;;;7.89;83.81;99068.63;109602;1252;70478;-63
2023/12/29 05:44:45;;;;;;;;;;;;;;;8.03;83.12;99066.45;109552;1252;59664;-61
2023/12/29 05:47:12;;;;;;;;;;;;;;;7.98;83.43;99061.35;109555;1252;59912;-60
2023/12/29 05:49:40;;;;;;;;;;;;;;;8.00;82.98;99051.96;109449;1253;74725;-62
2023/12/29 05:52:08;;;;;;;;;;;;;;;8.00;82.85;99051.17;109205;1253;68635;-61
2023/12/29 05:54:35;;;;;;;;;;;;;;;7.71;85.09;99050.59;109217;1253;72728;-60
2023/12/29 05:57:03;;;;;;;;;;;;;;;7.74;84.80;99053.84;109444;1252;60308;-62
2023/12/29 05:59:30;;;;;;;;;;;;;;;7.83;84.05;99056.63;109452;1253;59839;-61
2023/12/29 06:01:58;;;;;;;;;;;;;;;7.97;83.16;99061.08;109466;1253;73402;-61
2023/12/29 06:04:25;;;;;;;;;;;;;;;7.90;82.81;99055.42;109455;1253;67250;-61
2023/12/29 06:06:53;;;;;;;;;;;;;;;7.98;81.88;99057.56;109459;1253;70535;-64
2023/12/29 06:09:20;;;;;;;;;;;;;;;8.03;81.82;99066.34;109492;1253;61090;-61
2023/12/29 06:11:48;;;;;;;;;;;;;;;7.95;82.81;99066.29;109604;1252;59147;-61
2023/12/29 06:14:15;;;;;;;;;;;;;;;8.04;80.57;99070.68;109482;1251;73407;-60
2023/12/29 06:16:43;;;;;;;;;;;;;;;7.93;80.47;99074.98;109461;1252;69027;-61
2023/12/29 06:19:10;;;;;;;;;;;;;;;8.02;80.34;99076.27;109603;1253;72711;-61
2023/12/29 06:21:42;;;;;;;;;;;;;;;7.97;80.25;99082.02;109550;1253;60935;-61
2023/12/29 06:24:11;;;;;;;;;;;;;;;7.87;81.20;99079.34;109524;1252;59901;-61
2023/12/29 06:26:42;;;;;;;;;;;;;;;7.90;81.67;99082.16;109616;1252;73461;-61
2023/12/29 06:29:10;;;;;;;;;;;;;;;8.00;80.49;99076.89;109587;1253;68799;-62
2023/12/29 06:31:41;;;;;;;;;;;;;;;7.88;81.00;99076.10;109518;1253;72741;-64
2023/12/29 06:34:10;;;;;;;;;;;;;;;7.86;81.38;99073.35;109549;1252;59697;-61
2023/12/29 06:36:38;;;;;;;;;;;;;;;7.84;81.93;99077.38;109587;1252;58954;-64
2023/12/29 06:39:05;;;;;;;;;;;;;;;7.90;82.29;99075.09;109566;1253;74765;-65
2023/12/29 06:41:33;;;;;;;;;;;;;;;7.97;82.07;99077.33;109620;1253;68822;-62
2023/12/29 06:44:00;;;;;;;;;;;;;;;8.07;82.22;99076.86;109574;1252;71496;-60
2023/12/29 06:46:28;;;;;;;;;;;;;;;8.07;82.59;99074.45;109423;1252;59647;-62
2023/12/29 06:48:55;;;;;;;;;;;;;;;8.36;81.60;99064.43;109490;1253;58912;-63
2023/12/29 06:51:23;;;;;;;;;;;;;;;8.50;80.96;99068.27;109445;1253;74719;-63
2023/12/29 06:53:51;;;;;;;;;;;;;;;8.58;80.57;99072.31;109447;1253;67626;-63
2023/12/29 06:56:19;;;;;;;;;;;;;;;8.61;80.55;99073.85;109454;1253;71469;-63
2023/12/29 06:58:46;;;;;;;;;;;;;;;8.70;80.26;99072.44;109407;1254;59683;-64
2023/12/29 07:01:15;;;;;;;;;;;;;;;8.88;79.82;99069.50;109451;1253;59090;-64
2023/12/29 07:03:43;;;;;;;;;;;;;;;8.96;79.52;99071.29;109461;1253;73484;-64
2023/12/29 07:06:11;;;;;;;;;;;;;;;8.97;79.83;99077.98;109459;1252;68834;-64
2023/12/29 07:08:39;;;;;;;;;;;;;;;9.01;79.91;99080.27;109285;1252;71510;-64
2023/12/29 07:11:11;;;;;;;;;;;;;;;9.18;79.30;99076.77;109231;1253;59774;-63
2023/12/29 07:13:39;;;;;;;;;;;;;;;9.27;78.63;99072.97;109502;1252;59952;-65
2023/12/29 07:16:06;;;;;;;;;;;;;;;9.39;78.33;99080.63;109459;1252;73461;-64
2023/12/29 07:18:34;;;;;;;;;;;;;;;9.58;77.34;99080.09;109585;1251;68535;-63
2023/12/29 07:21:01;;;;;;;;;;;;;;;9.76;76.30;99075.11;109457;1252;72744;-64
2023/12/29 07:23:29;;;;;;;;;;;;;;;9.79;76.18;99080.11;109552;1252;59667;-65
2023/12/29 07:25:56;;;;;;;;;;;;;;;9.84;75.73;99084.59;109536;1252;58883;-63
2023/12/29 07:28:24;;;;;;;;;;;;;;;9.56;77.32;99089.99;109617;1252;74609;-65
2023/12/29 07:30:51;;;;;;;;;;;;;;;9.78;76.37;99089.80;109545;1252;68947;-65
2023/12/29 07:33:19;;;;;;;;;;;;;;;9.78;76.17;99097.43;109363;1252;73196;-64
2023/12/29 07:35:46;;;;;;;;;;;;;;;9.71;76.43;99106.98;109417;1254;60928;-65
2023/12/29 07:38:14;;;;;;;;;;;;;;;9.96;75.47;99104.27;109550;1252;59853;-63
2023/12/29 07:40:41;;;;;;;;;;;;;;;10.19;74.66;99102.17;109557;1252;74694;-65
2023/12/29 07:43:09;;;;;;;;;;;;;;;10.06;74.07;99105.94;109439;1253;68666;-65
2023/12/29 07:45:37;;;;;;;;;;;;;;;10.11;74.47;99106.87;109594;1252;71824;-64
2023/12/29 07:48:05;;;;;;;;;;;;;;;10.14;74.10;99107.00;109518;1252;58900;-65
2023/12/29 07:50:37;;;;;;;;;;;;;;;10.19;74.07;99111.67;109484;1252;59770;-63
2023/12/29 07:53:05;;;;;;;;;;;;;;;10.25;73.71;99118.30;109513;1252;73452;-64
2023/12/29 07:55:33;;;;;;;;;;;;;;;10.38;73.29;99122.18;109535;1252;66702;-62
2023/12/29 07:58:00;;;;;;;;;;;;;;;10.44;72.79;99119.73;109261;1252;72702;-62
2023/12/29 08:00:28;;;;;;;;;;;;;;;10.55;72.31;99115.50;109186;1258;60964;-65
2023/12/29 08:02:56;;;;;;;;;;;;;;;10.58;71.78;99117.75;109209;1251;58850;-66
2023/12/29 08:05:23;;;;;;;;;;;;;;;10.38;72.91;99115.86;109561;1252;74688;-62
2023/12/29 08:07:51;;;;;;;;;;;;;;;10.38;73.19;99107.75;109515;1251;68826;-63
2023/12/29 08:10:18;;;;;;;;;;;;;;;10.50;72.55;99109.56;109452;1254;72736;-63
2023/12/29 08:12:46;;;;;;;;;;;;;;;10.58;72.95;99108.46;109203;1252;60910;-63
2023/12/29 08:15:13;;;;;;;;;;;;;;;10.57;72.80;99114.42;109528;1253;58888;-64
2023/12/29 08:17:41;;;;;;;;;;;;;;;10.70;72.51;99118.42;109533;1252;74694;-63
2023/12/29 08:20:09;;;;;;;;;;;;;;;10.74;71.78;99117.89;109502;1251;68862;-64
2023/12/29 08:22:37;;;;;;;;;;;;;;;10.82;71.11;99121.03;109438;1252;72732;-65
2023/12/29 08:25:05;;;;;;;;;;;;;;;11.02;70.53;99121.76;109254;1252;60949;-64
2023/12/29 08:27:32;;;;;;;;;;;;;;;11.08;70.16;99117.30;109549;1252;59026;-65
2023/12/29 08:30:00;;;;;;;;;;;;;;;11.10;69.77;99116.55;109250;1253;74702;-64
2023/12/29 08:32:27;;;;;;;;;;;;;;;11.04;70.11;99114.40;109536;1252;68809;-63
2023/12/29 08:34:55;;;;;;;;;;;;;;;11.19;69.43;99114.98;109491;1252;72775;-65
2023/12/29 08:37:23;;;;;;;;;;;;;;;11.11;69.51;99110.05;109539;1252;60980;-66
2023/12/29 08:39:50;;;;;;;;;;;;;;;11.15;69.78;99112.41;109479;1252;59080;-65
2023/12/29 08:42:18;;;;;;;;;;;;;;;11.22;69.30;99110.86;109591;1252;74823;-63
2023/12/29 08:44:45;;;;;;;;;;;;;;;11.59;68.19;99106.65;109641;1253;67327;-66
2023/12/29 08:47:13;;;;;;;;;;;;;;;11.71;67.24;99107.11;109551;1253;72739;-64
2023/12/29 08:49:40;;;;;;;;;;;;;;;11.50;68.24;99101.27;109427;1254;60934;-66
2023/12/29 08:52:11;;;;;;;;;;;;;;;11.50;68.32;99099.40;109464;1253;58974;-64
2023/12/29 08:54:39;;;;;;;;;;;;;;;11.60;67.67;99097.83;109483;1252;74763;-65
2023/12/29 08:57:07;;;;;;;;;;;;;;;11.91;66.32;99097.62;109357;1252;67675;-64
2023/12/29 08:59:34;;;;;;;;;;;;;;;11.65;67.57;99097.60;109482;1253;72738;-66
2023/12/29 09:02:02;;;;;;;;;;;;;;;11.53;67.87;99087.95;109348;1255;59655;-65
2023/12/29 09:04:29;;;;;;;;;;;;;;;11.65;67.69;99090.66;109400;1253;60315;-64
2023/12/29 09:06:57;;;;;;;;;;;;;;;11.66;67.42;99084.48;109463;1253;74752;-65
2023/12/29 09:09:24;;;;;;;;;;;;;;;11.75;67.24;99078.77;109531;1252;67620;-62
2023/12/29 09:11:52;;;;;;;;;;;;;;;12.02;66.04;99077.67;109649;1252;72748;-65
2023/12/29 09:14:19;;;;;;;;;;;;;;;12.19;65.06;99079.13;109577;1252;58917;-65
2023/12/29 09:16:46;;;;;;;;;;;;;;;11.67;67.05;99071.52;109240;1252;59926;-63
2023/12/29 09:19:14;;;;;;;;;;;;;;;12.10;65.61;99074.33;109548;1252;74682;-65
2023/12/29 09:21:57;;;;;;;;;;;;;;;12.26;64.65;99076.03;109602;1251;67592;-65
2023/12/29 09:24:25;;;;;;;;;;;;;;;12.22;65.10;99073.79;109584;1251;72742;-65
2023/12/29 09:26:52;;;;;;;;;;;;;;;12.37;64.43;99076.47;109548;1252;59716;-63
2023/12/29 09:29:20;;;;;;;;;;;;;;;12.11;65.41;99070.98;109620;1252;59861;-66
2023/12/29 09:31:47;;;;;;;;;;;;;;;12.08;65.19;99068.63;109507;1252;73905;-65
2023/12/29 09:34:17;;;;;;;;;;;;;;;11.92;65.90;99058.24;109593;1251;67270;-65
2023/12/29 09:36:45;;;;;;;;;;;;;;;12.11;65.45;99067.10;109487;1252;71598;-66
2023/12/29 09:39:13;;;;;;;;;;;;;;;11.96;65.92;99062.81;109547;1254;59649;-65
2023/12/29 09:41:42;;;;;;;;;;;;;;;12.06;65.93;99069.38;109575;1251;59853;-65
2023/12/29 09:44:13;;;;;;;;;;;;;;;12.17;65.43;99070.15;109603;1252;73422;-65
2023/12/29 09:46:41;;;;;;;;;;;;;;;12.29;64.91;99065.64;109636;1251;68789;-64
2023/12/29 09:49:08;;;;;;;;;;;;;;;12.36;64.63;99070.38;109469;1253;71511;-64
2023/12/29 09:51:36;;;;;;;;;;;;;;;12.15;65.22;99059.50;109382;1253;61022;-64
2023/12/29 09:54:04;;;;;;;;;;;;;;;12.01;65.94;99056.27;109371;1253;59889;-64
2023/12/29 09:56:31;;;;;;;;;;;;;;;12.35;64.66;99055.00;109457;1252;74707;-65
2023/12/29 09:58:59;;;;;;;;;;;;;;;12.30;64.49;99059.81;109502;1253;67247;-65
2023/12/29 10:01:29;;;;;;;;;;;;;;;12.36;64.16;99062.42;109474;1253;72754;-63
2023/12/29 10:03:57;;;;;;;;;;;;;;;12.30;64.40;99059.21;109314;1255;59647;-64
2023/12/29 10:06:24;;;;;;;;;;;;;;;12.56;63.65;99061.17;109514;1253;59950;-65
2023/12/29 10:08:52;;;;;;;;;;;;;;;12.59;63.26;99060.84;109480;1251;74953;-65
2023/12/29 10:11:23;;;;;;;;;;;;;;;12.74;62.72;99057.83;109319;1251;68521;-64
2023/12/29 10:13:52;;;;;;;;;;;;;;;12.56;63.36;99048.69;109524;1251;71784;-64
2023/12/29 10:16:23;;;;;;;;;;;;;;;12.54;63.29;99053.76;109584;1252;61112;-64
2023/12/29 10:19:09;;;;;;;;;;;;;;;12.64;62.70;99048.58;109608;1252;59845;-64
2023/12/29 10:21:44;;;;;;;;;;;;;;;12.65;62.36;99044.91;109622;1251;74698;-65
2023/12/29 10:24:17;;;;;;;;;;;;;;;12.80;62.02;99046.58;109523;1253;67642;-65
2023/12/29 10:26:44;;;;;;;;;;;;;;;12.52;62.66;99035.84;109538;1253;71927;-62
2023/12/29 10:29:12;;;;;;;;;;;;;;;12.75;62.12;99038.88;109568;1252;59656;-66
2023/12/29 10:31:41;;;;;;;;;;;;;;;12.72;62.51;99040.17;109545;1252;59039;-66
2023/12/29 10:34:31;;;;;;;;;;;;;;;12.83;61.95;99042.10;109608;1252;73426;-66
2023/12/29 10:37:01;;;;;;;;;;;;;;;13.12;61.00;99040.35;109356;1252;67658;-65
2023/12/29 10:39:28;;;;;;;;;;;;;;;13.24;60.26;99043.65;109611;1253;70937;-65
2023/12/29 10:42:03;;;;;;;;;;;;;;;13.33;59.88;99041.70;109596;1253;61152;-67
2023/12/29 10:44:31;;;;;;;;;;;;;;;13.07;60.28;99033.92;109585;1252;60255;-65
2023/12/29 10:47:00;;;;;;;;;;;;;;;12.95;61.18;99035.42;109521;1253;73794;-64
2023/12/29 10:49:28;;;;;;;;;;;;;;;12.99;61.42;99031.30;109340;1253;68547;-67
2023/12/29 10:51:55;;;;;;;;;;;;;;;12.96;61.28;99020.98;109482;1253;71583;-65
2023/12/29 10:54:23;;;;;;;;;;;;;;;13.04;61.44;99021.83;109290;1255;61770;-65
2023/12/29 10:57:01;;;;;;;;;;;;;;;13.07;60.96;99026.75;109196;1253;59977;-65
2023/12/29 10:59:28;;;;;;;;;;;;;;;12.75;63.02;99017.97;109484;1252;73476;-64
2023/12/29 11:01:56;;;;;;;;;;;;;;;13.14;61.72;99011.45;109498;1252;68519;-65
2023/12/29 11:04:23;;;;;;;;;;;;;;;13.03;61.89;99006.10;109369;1253;72737;-65
2023/12/29 11:06:51;;;;;;;;;;;;;;;13.12;61.73;99007.96;109474;1254;60966;-65
2023/12/29 11:09:31;;;;;;;;;;;;;;;13.44;60.56;99009.62;109165;1252;58973;-65
2023/12/29 11:11:59;;;;;;;;;;;;;;;13.82;59.29;99005.64;109605;1252;74760;-66
2023/12/29 11:14:28;;;;;;;;;;;;;;;13.40;60.32;98993.97;109586;1251;68514;-62
2023/12/29 11:16:56;;;;;;;;;;;;;;;13.46;60.06;98992.52;109544;1252;71456;-65
2023/12/29 11:19:23;;;;;;;;;;;;;;;13.63;59.97;98998.25;109575;1253;60465;-64
2023/12/29 11:21:53;;;;;;;;;;;;;;;13.48;60.79;98993.56;109589;1252;60049;-66
2023/12/29 11:24:20;;;;;;;;;;;;;;;13.36;61.26;98986.30;109583;1252;73810;-65
2023/12/29 11:27:02;;;;;;;;;;;;;;;13.61;60.48;98986.09;109587;1252;67269;-64
2023/12/29 11:29:29;;;;;;;;;;;;;;;13.72;60.16;98981.75;109518;1252;72709;-64
2023/12/29 11:31:57;;;;;;;;;;;;;;;13.74;60.01;98986.38;109585;1252;61719;-63
2023/12/29 11:34:26;;;;;;;;;;;;;;;13.72;60.00;98981.11;109304;1252;59886;-64
2023/12/29 11:36:56;;;;;;;;;;;;;;;13.65;59.90;98984.33;109603;1251;74709;-65
2023/12/29 11:39:23;;;;;;;;;;;;;;;13.87;59.17;98984.11;109600;1252;67255;-64
2023/12/29 11:41:50;;;;;;;;;;;;;;;13.75;59.39;98977.61;109543;1252;72733;-65
2023/12/29 11:44:27;;;;;;;;;;;;;;;13.52;60.48;98978.69;109533;1254;62007;-65
2023/12/29 11:46:57;;;;;;;;;;;;;;;13.82;59.82;98981.96;109601;1252;59548;-66
2023/12/29 11:49:24;;;;;;;;;;;;;;;13.87;59.74;98974.61;109532;1252;74501;-65
2023/12/29 11:51:52;;;;;;;;;;;;;;;13.99;58.91;98979.25;109479;1253;68866;-65
2023/12/29 11:54:23;;;;;;;;;;;;;;;13.80;59.70;98979.39;109375;1253;72723;-66
2023/12/29 11:56:50;;;;;;;;;;;;;;;13.66;59.92;98976.48;109498;1254;60437;-65
2023/12/29 11:59:27;;;;;;;;;;;;;;;13.83;59.97;98983.78;109499;1252;59813;-65
2023/12/29 12:01:57;;;;;;;;;;;;;;;14.01;59.12;98978.16;109524;1253;73883;-65
2023/12/29 12:04:40;;;;;;;;;;;;;;;13.73;59.98;98977.95;109483;1253;68509;-66
2023/12/29 12:07:12;;;;;;;;;;;;;;;13.73;60.38;98980.49;109503;1253;71586;-66
2023/12/29 12:09:40;;;;;;;;;;;;;;;13.53;61.15;98976.14;109567;1252;60687;-66
2023/12/29 12:12:08;;;;;;;;;;;;;;;13.81;59.99;98978.20;109552;1252;58943;-66
2023/12/29 12:14:51;;;;;;;;;;;;;;;13.95;59.74;98978.48;109634;1252;74840;-66
2023/12/29 12:17:32;;;;;;;;;;;;;;;14.00;59.36;98974.33;109556;1252;68832;-66
2023/12/29 12:20:03;;;;;;;;;;;;;;;13.85;59.74;98967.89;109568;1252;71518;-66
2023/12/29 12:22:31;;;;;;;;;;;;;;;13.64;60.83;98970.46;109476;1252;60464;-67
2023/12/29 12:25:03;;;;;;;;;;;;;;;13.68;61.24;98965.73;109191;1252;59840;-66
2023/12/29 12:27:31;;;;;;;;;;;;;;;13.82;60.73;98961.18;109635;1253;74215;-66
2023/12/29 12:29:59;;;;;;;;;;;;;;;13.81;60.92;98958.66;109602;1251;68837;-66
2023/12/29 12:32:27;;;;;;;;;;;;;;;13.75;61.37;98954.15;109318;1252;72899;-65
2023/12/29 12:34:55;;;;;;;;;;;;;;;13.83;61.27;98950.27;109226;1253;60151;-66
2023/12/29 12:37:23;;;;;;;;;;;;;;;13.79;61.42;98942.28;109540;1253;59881;-66
2023/12/29 12:39:51;;;;;;;;;;;;;;;14.11;60.13;98941.00;109419;1252;73415;-66
2023/12/29 12:42:19;;;;;;;;;;;;;;;14.24;59.72;98940.81;109567;1251;68941;-66
2023/12/29 12:44:50;;;;;;;;;;;;;;;14.28;59.14;98940.90;109567;1253;72768;-66
2023/12/29 12:47:19;;;;;;;;;;;;;;;14.47;58.70;98939.39;109555;1255;61710;-66